createdAt,value
2019-03-17T00:00:28.541Z,3.17
2019-03-17T00:02:59.068Z,5.30
2019-03-17T00:05:30.372Z,2.77
2019-03-17T00:08:01.093Z,3.80
2019-03-17T00:10:31.887Z,3.33
2019-03-17T00:13:02.683Z,5.50
2019-03-17T00:15:35.061Z,4.13
2019-03-17T00:18:05.894Z,2.90
2019-03-17T00:20:37.429Z,3.40
2019-03-17T00:23:07.861Z,2.23
2019-03-17T00:25:38.152Z,5.43
2019-03-17T00:28:09.211Z,2.60
2019-03-17T00:30:40.232Z,7.30
2019-03-17T00:33:11.467Z,3.90
2019-03-17T00:35:41.764Z,5.63
2019-03-17T00:38:11.946Z,6.27
2019-03-17T00:40:43.626Z,4.70
2019-03-17T00:43:13.805Z,3.20
2019-03-17T00:45:43.975Z,3.83
2019-03-17T00:48:14.190Z,3.60
2019-03-17T00:50:44.604Z,3.43
2019-03-17T00:53:15.293Z,5.97
2019-03-17T00:55:45.736Z,5.23
2019-03-17T00:58:16.426Z,4.20
2019-03-17T01:00:46.726Z,4.77
2019-03-17T01:03:18.336Z,11.43
2019-03-17T01:05:48.920Z,8.00
2019-03-17T01:08:19.301Z,3.87
2019-03-17T01:10:49.699Z,3.13
2019-03-17T01:13:19.975Z,5.00
2019-03-17T01:15:50.907Z,3.00
2019-03-17T01:18:21.170Z,5.00
2019-03-17T01:20:51.487Z,3.50
2019-03-17T01:23:22.032Z,3.13
2019-03-17T01:25:52.491Z,5.23
2019-03-17T01:28:23.178Z,6.03
2019-03-17T01:30:53.515Z,6.60
2019-03-17T01:33:24.455Z,4.40
2019-03-17T01:35:55.252Z,5.57
2019-03-17T01:38:25.866Z,5.87
2019-03-17T01:40:57.806Z,4.93
2019-03-17T01:43:27.962Z,3.90
2019-03-17T01:45:58.252Z,6.23
2019-03-17T01:48:29.588Z,3.53
2019-03-17T01:51:02.485Z,5.50
2019-03-17T01:53:32.750Z,5.50
2019-03-17T01:56:03.358Z,3.93
2019-03-17T01:58:33.779Z,7.40
2019-03-17T02:01:04.212Z,7.72
2019-03-17T02:03:34.361Z,6.47
2019-03-17T02:06:06.866Z,5.97
2019-03-17T02:08:39.295Z,4.67
2019-03-17T02:11:09.814Z,6.23
2019-03-17T02:13:41.136Z,5.17
2019-03-17T02:16:11.565Z,6.47
2019-03-17T02:18:41.851Z,6.13
2019-03-17T02:21:12.263Z,5.37
2019-03-17T02:23:44.610Z,5.77
2019-03-17T02:26:14.835Z,5.72
2019-03-17T02:28:45.109Z,6.70
2019-03-17T02:31:15.467Z,6.23
2019-03-17T02:33:45.883Z,9.78
2019-03-17T02:36:16.152Z,3.40
2019-03-17T02:38:46.475Z,6.73
2019-03-17T02:41:16.916Z,8.15
2019-03-17T02:43:47.246Z,6.50
2019-03-17T02:46:17.528Z,8.60
2019-03-17T02:48:48.931Z,8.40
2019-03-17T02:51:19.675Z,11.30
2019-03-17T02:53:51.003Z,7.17
2019-03-17T02:56:21.373Z,14.95
2019-03-17T02:58:51.755Z,11.35
2019-03-17T03:01:22.200Z,8.20
2019-03-17T03:04:04.512Z,8.23
2019-03-17T03:06:34.903Z,6.97
2019-03-17T03:09:07.932Z,10.48
2019-03-17T03:11:38.926Z,9.15
2019-03-17T03:14:10.446Z,8.40
2019-03-17T03:16:44.072Z,10.38
2019-03-17T03:19:14.671Z,6.58
2019-03-17T03:21:45.165Z,8.90
2019-03-17T03:24:47.275Z,3.42
2019-03-17T03:27:17.668Z,5.37
2019-03-17T03:29:48.421Z,6.10
2019-03-17T03:32:19.161Z,7.25
2019-03-17T03:34:50.329Z,6.62
2019-03-17T03:37:20.772Z,7.80
2019-03-17T03:39:51.095Z,4.97
2019-03-17T03:42:21.825Z,7.62
2019-03-17T03:44:52.145Z,7.47
2019-03-17T03:47:24.561Z,6.80
2019-03-17T03:49:57.337Z,5.05
2019-03-17T03:52:27.884Z,5.92
2019-03-17T03:54:58.224Z,5.45
2019-03-17T03:57:28.456Z,15.18
2019-03-17T03:59:58.713Z,9.33
2019-03-17T04:02:29.142Z,5.25
2019-03-17T04:04:59.436Z,6.87
2019-03-17T04:07:29.796Z,4.85
2019-03-17T04:10:00.522Z,8.83
2019-03-17T04:12:31.405Z,8.33
2019-03-17T04:15:06.224Z,12.07
2019-03-17T04:17:36.665Z,6.78
2019-03-17T04:20:08.531Z,5.92
2019-03-17T04:22:38.683Z,6.95
2019-03-17T04:25:09.989Z,8.58
2019-03-17T04:27:40.464Z,7.12
2019-03-17T04:30:11.057Z,7.58
2019-03-17T04:32:41.595Z,7.60
2019-03-17T04:35:13.633Z,12.33
2019-03-17T04:37:43.964Z,7.30
2019-03-17T04:40:14.749Z,8.05
2019-03-17T04:43:00.185Z,7.92
2019-03-17T04:45:30.632Z,10.85
2019-03-17T04:48:01.263Z,10.98
2019-03-17T04:50:31.490Z,9.50
2019-03-17T04:53:02.929Z,7.85
2019-03-17T04:55:33.262Z,8.50
2019-03-17T04:58:03.496Z,3.87
2019-03-17T05:00:34.338Z,4.75
2019-03-17T05:03:05.196Z,6.20
2019-03-17T05:05:35.921Z,6.45
2019-03-17T05:08:06.483Z,8.65
2019-03-17T05:10:36.901Z,5.37
2019-03-17T05:13:07.300Z,6.47
2019-03-17T05:15:37.738Z,3.87
2019-03-17T05:18:08.141Z,5.22
2019-03-17T05:20:38.346Z,4.85
2019-03-17T05:23:08.702Z,8.48
2019-03-17T05:25:39.102Z,6.10
2019-03-17T05:28:09.435Z,4.75
2019-03-17T05:30:40.231Z,8.68
2019-03-17T05:33:10.661Z,5.50
2019-03-17T05:35:42.061Z,6.70
2019-03-17T05:38:12.433Z,6.67
2019-03-17T05:40:43.388Z,8.35
2019-03-17T05:43:13.533Z,7.15
2019-03-17T05:45:43.907Z,11.40
2019-03-17T05:48:14.367Z,12.20
2019-03-17T05:50:45.530Z,11.45
2019-03-17T05:53:16.033Z,15.28
2019-03-17T05:55:46.228Z,13.05
2019-03-17T05:58:16.562Z,12.73
2019-03-17T06:00:56.473Z,14.98
2019-03-17T06:03:27.676Z,11.35
2019-03-17T06:05:58.129Z,17.52
2019-03-17T06:08:28.512Z,12.80
2019-03-17T06:10:58.884Z,14.43
2019-03-17T06:13:29.271Z,13.45
2019-03-17T06:15:59.603Z,13.43
2019-03-17T06:18:29.774Z,10.75
2019-03-17T06:21:00.477Z,14.33
2019-03-17T06:23:30.728Z,9.95
2019-03-17T06:26:01.228Z,11.33
2019-03-17T06:28:31.542Z,13.05
2019-03-17T06:31:02.437Z,12.82
2019-03-17T06:33:33.258Z,11.30
2019-03-17T06:36:03.445Z,13.30
2019-03-17T06:38:35.130Z,16.73
2019-03-17T06:41:05.848Z,11.40
2019-03-17T06:43:37.457Z,8.85
2019-03-17T06:46:07.727Z,10.60
2019-03-17T06:48:38.399Z,11.22
2019-03-17T06:51:09.085Z,13.32
2019-03-17T06:53:39.406Z,10.88
2019-03-17T06:56:09.631Z,15.88
2019-03-17T06:58:39.763Z,16.10
2019-03-17T07:01:10.096Z,10.23
2019-03-17T07:03:42.558Z,14.98
2019-03-17T07:06:12.959Z,10.20
2019-03-17T07:08:43.254Z,10.93
2019-03-17T07:11:15.039Z,9.85
2019-03-17T07:13:45.297Z,9.58
2019-03-17T07:16:15.798Z,6.58
2019-03-17T07:18:46.604Z,12.13
2019-03-17T07:21:18.045Z,9.13
2019-03-17T07:23:48.362Z,8.23
2019-03-17T07:26:18.615Z,11.43
2019-03-17T07:28:54.317Z,10.40
2019-03-17T07:31:24.540Z,9.00
2019-03-17T07:33:55.489Z,15.30
2019-03-17T07:36:26.141Z,13.40
2019-03-17T07:39:10.851Z,11.33
2019-03-17T07:41:31.117Z,11.05
2019-03-17T07:44:01.839Z,9.43
2019-03-17T07:46:33.269Z,12.05
2019-03-17T07:49:04.240Z,10.30
2019-03-17T07:51:35.559Z,8.25
2019-03-17T07:54:06.049Z,10.35
2019-03-17T07:56:37.309Z,11.70
2019-03-17T07:59:07.657Z,12.33
2019-03-17T08:01:38.028Z,15.90
2019-03-17T08:04:08.456Z,13.78
2019-03-17T08:06:38.954Z,12.07
2019-03-17T08:09:10.021Z,8.55
2019-03-17T08:11:40.533Z,10.88
2019-03-17T08:14:10.820Z,13.60
2019-03-17T08:16:41.068Z,15.28
2019-03-17T08:19:12.272Z,13.00
2019-03-17T08:21:43.381Z,13.30
2019-03-17T08:24:13.951Z,12.53
2019-03-17T08:26:44.423Z,11.97
2019-03-17T08:29:15.064Z,19.17
2019-03-17T08:31:45.331Z,12.60
2019-03-17T08:34:16.128Z,14.23
2019-03-17T08:36:46.649Z,15.23
2019-03-17T08:39:18.463Z,19.53
2019-03-17T08:41:48.686Z,16.30
2019-03-17T08:44:20.026Z,15.03
2019-03-17T08:46:50.393Z,13.20
2019-03-17T08:49:20.722Z,22.17
2019-03-17T08:51:51.233Z,16.00
2019-03-17T08:54:21.375Z,14.13
2019-03-17T08:56:51.569Z,13.70
2019-03-17T08:59:21.766Z,13.00
2019-03-17T09:01:52.501Z,14.27
2019-03-17T09:04:24.778Z,15.53
2019-03-17T09:06:54.921Z,14.97
2019-03-17T09:09:25.229Z,17.00
2019-03-17T09:11:55.436Z,21.00
2019-03-17T09:14:25.703Z,15.27
2019-03-17T09:16:56.386Z,12.67
2019-03-17T09:19:27.270Z,17.10
2019-03-17T09:21:57.728Z,15.17
2019-03-17T09:24:28.137Z,15.73
2019-03-17T09:26:58.287Z,17.30
2019-03-17T09:29:28.599Z,17.60
2019-03-17T09:31:58.777Z,17.37
2019-03-17T09:34:29.399Z,16.03
2019-03-17T09:36:59.620Z,16.57
2019-03-17T09:39:29.937Z,19.00
2019-03-17T09:42:00.404Z,14.87
2019-03-17T09:44:30.734Z,19.97
2019-03-17T09:47:01.860Z,16.47
2019-03-17T09:49:32.024Z,14.80
2019-03-17T09:52:02.177Z,17.23
2019-03-17T09:54:32.331Z,13.40
2019-03-17T09:57:02.548Z,14.37
2019-03-17T09:59:32.781Z,20.67
2019-03-17T10:02:03.368Z,16.60
2019-03-17T10:04:33.566Z,15.73
2019-03-17T10:07:04.912Z,18.07
2019-03-17T10:09:35.167Z,20.37
2019-03-17T10:12:05.428Z,19.63
2019-03-17T10:14:36.032Z,19.13
2019-03-17T10:17:07.630Z,18.93
2019-03-17T10:19:38.249Z,16.73
2019-03-17T10:22:08.715Z,27.97
2019-03-17T10:24:38.799Z,22.67
2019-03-17T10:27:09.003Z,23.77
2019-03-17T10:29:39.637Z,22.93
2019-03-17T10:32:10.040Z,19.30
2019-03-17T10:34:40.210Z,17.13
2019-03-17T10:37:11.437Z,22.50
2019-03-17T10:39:41.481Z,21.13
2019-03-17T10:42:11.941Z,25.87
2019-03-17T10:44:42.505Z,22.63
2019-03-17T10:47:12.812Z,25.73
2019-03-17T10:49:43.104Z,20.90
2019-03-17T10:52:17.631Z,22.43
2019-03-17T10:54:48.301Z,24.40
2019-03-17T10:57:18.823Z,19.40
2019-03-17T10:59:49.233Z,17.47
2019-03-17T11:02:19.518Z,17.43
2019-03-17T11:04:49.746Z,17.97
2019-03-17T11:07:20.155Z,20.70
2019-03-17T11:09:50.390Z,19.70
2019-03-17T11:12:20.788Z,20.00
2019-03-17T11:14:50.923Z,23.77
2019-03-17T11:17:21.091Z,20.87
2019-03-17T11:19:51.325Z,23.97
2019-03-17T11:22:21.537Z,22.37
2019-03-17T11:24:51.863Z,26.23
2019-03-17T11:27:22.322Z,24.40
2019-03-17T11:29:52.570Z,16.10
2019-03-17T11:32:23.182Z,19.27
2019-03-17T11:34:54.447Z,26.87
2019-03-17T11:37:25.091Z,17.47
2019-03-17T11:39:56.657Z,27.03
2019-03-17T11:42:27.064Z,24.77
2019-03-17T11:44:57.255Z,30.17
2019-03-17T11:47:27.997Z,24.27
2019-03-17T11:49:58.400Z,22.90
2019-03-17T11:52:29.204Z,22.47
2019-03-17T11:55:00.367Z,34.07
2019-03-17T11:57:31.706Z,20.03
2019-03-17T12:00:02.822Z,38.87
2019-03-17T12:02:33.096Z,25.90
2019-03-17T12:05:03.519Z,30.50
2019-03-17T12:07:33.631Z,17.27
2019-03-17T12:10:04.054Z,20.60
2019-03-17T12:12:34.422Z,23.70
2019-03-17T12:15:04.945Z,13.83
2019-03-17T12:17:35.651Z,15.37
2019-03-17T12:20:07.256Z,10.83
2019-03-17T12:22:37.437Z,11.97
2019-03-17T12:25:11.489Z,15.10
2019-03-17T12:27:41.030Z,14.93
2019-03-17T12:30:17.425Z,15.63
2019-03-17T12:32:47.673Z,14.33
2019-03-17T12:35:18.072Z,17.60
2019-03-17T12:37:49.040Z,27.93
2019-03-17T12:40:19.681Z,18.13
2019-03-17T12:42:50.219Z,19.67
2019-03-17T12:45:20.657Z,23.33
2019-03-17T12:47:50.931Z,23.00
2019-03-17T12:50:21.279Z,17.10
2019-03-17T12:52:53.469Z,22.13
2019-03-17T12:55:25.220Z,14.40
2019-03-17T12:57:55.813Z,22.47
2019-03-17T13:00:26.420Z,22.87
2019-03-17T13:02:56.559Z,22.60
2019-03-17T13:05:27.008Z,16.33
2019-03-17T13:07:57.299Z,32.40
2019-03-17T13:10:28.540Z,19.20
2019-03-17T13:12:59.494Z,37.47
2019-03-17T13:15:30.068Z,20.40
2019-03-17T13:18:03.752Z,17.97
2019-03-17T13:20:34.502Z,23.03
2019-03-17T13:23:05.353Z,17.50
2019-03-17T13:25:35.990Z,20.53
2019-03-17T13:28:06.707Z,21.93
2019-03-17T13:30:37.285Z,18.23
2019-03-17T13:33:09.495Z,25.80
2019-03-17T13:35:39.989Z,16.80
2019-03-17T13:38:11.963Z,26.30
2019-03-17T13:40:43.389Z,21.77
2019-03-17T13:43:13.563Z,13.03
2019-03-17T13:45:45.184Z,15.93
2019-03-17T13:48:15.878Z,25.93
2019-03-17T13:50:49.578Z,25.90
2019-03-17T13:53:19.736Z,28.20
2019-03-17T13:55:50.301Z,19.50
2019-03-17T13:58:20.890Z,21.77
2019-03-17T14:00:52.005Z,15.87
2019-03-17T14:03:22.779Z,14.23
2019-03-17T14:05:53.380Z,25.93
2019-03-17T14:08:23.591Z,16.17
2019-03-17T14:10:53.872Z,21.50
2019-03-17T14:13:24.788Z,14.50
2019-03-17T14:15:55.421Z,16.17
2019-03-17T14:18:25.530Z,17.87
2019-03-17T14:20:55.912Z,14.67
2019-03-17T14:23:27.124Z,10.50
2019-03-17T14:25:57.711Z,14.67
2019-03-17T14:28:28.399Z,18.40
2019-03-17T14:30:59.396Z,19.00
2019-03-17T14:33:29.995Z,19.27
2019-03-17T14:36:00.372Z,17.73
2019-03-17T14:38:30.528Z,14.87
2019-03-17T14:41:01.494Z,10.20
2019-03-17T14:43:31.663Z,20.57
2019-03-17T14:46:01.830Z,15.37
2019-03-17T14:48:31.958Z,14.30
2019-03-17T14:51:02.622Z,18.17
2019-03-17T14:53:33.095Z,19.20
2019-03-17T14:56:03.683Z,16.97
2019-03-17T14:58:33.761Z,11.00
2019-03-17T15:01:04.049Z,16.50
2019-03-17T15:03:34.250Z,13.30
2019-03-17T15:06:04.439Z,13.40
2019-03-17T15:08:34.517Z,17.60
2019-03-17T15:11:06.065Z,27.33
2019-03-17T15:13:36.471Z,15.63
2019-03-17T15:16:07.764Z,22.80
2019-03-17T15:18:37.858Z,17.20
2019-03-17T15:21:08.025Z,16.93
2019-03-17T15:23:38.225Z,15.83
2019-03-17T15:26:08.435Z,14.93
2019-03-17T15:28:38.814Z,21.53
2019-03-17T15:31:11.928Z,19.80
2019-03-17T15:33:41.621Z,18.13
2019-03-17T15:36:11.741Z,15.20
2019-03-17T15:38:43.271Z,17.90
2019-03-17T15:41:18.810Z,14.47
2019-03-17T15:43:48.710Z,19.80
2019-03-17T15:46:18.815Z,21.93
2019-03-17T15:48:49.071Z,20.47
2019-03-17T15:51:20.679Z,17.53
2019-03-17T15:53:51.300Z,17.50
2019-03-17T15:56:21.498Z,19.03
2019-03-17T15:58:51.895Z,16.40
2019-03-17T16:01:22.106Z,15.23
2019-03-17T16:03:52.588Z,18.27
2019-03-17T16:06:27.367Z,20.20
2019-03-17T16:08:57.950Z,17.17
2019-03-17T16:11:31.120Z,19.30
2019-03-17T16:14:01.861Z,19.83
2019-03-17T16:16:32.215Z,18.33
2019-03-17T16:19:02.514Z,23.73
2019-03-17T16:21:33.577Z,22.80
2019-03-17T16:24:03.841Z,20.43
2019-03-17T16:26:33.874Z,27.07
2019-03-17T16:29:08.856Z,19.30
2019-03-17T16:31:39.802Z,21.60
2019-03-17T16:34:09.948Z,16.70
2019-03-17T16:36:41.759Z,22.53
2019-03-17T16:39:14.940Z,17.93
2019-03-17T16:41:47.009Z,23.60
2019-03-17T16:44:17.430Z,23.80
2019-03-17T16:46:49.562Z,20.63
2019-03-17T16:49:20.144Z,13.23
2019-03-17T16:51:50.738Z,30.43
2019-03-17T16:54:20.815Z,19.70
2019-03-17T16:56:52.121Z,21.97
2019-03-17T16:59:23.012Z,22.33
2019-03-17T17:01:53.306Z,26.47
2019-03-17T17:04:23.576Z,23.97
2019-03-17T17:06:53.999Z,21.20
2019-03-17T17:09:25.569Z,25.53
2019-03-17T17:11:57.475Z,26.13
2019-03-17T17:14:28.429Z,24.53
2019-03-17T17:16:59.962Z,18.30
2019-03-17T17:19:32.648Z,16.10
2019-03-17T17:22:02.982Z,30.77
2019-03-17T17:24:33.307Z,32.80
2019-03-17T17:27:03.880Z,25.40
2019-03-17T17:29:34.855Z,22.93
2019-03-17T17:32:05.267Z,22.47
2019-03-17T17:34:36.823Z,34.07
2019-03-17T17:37:07.215Z,28.73
2019-03-17T17:39:38.028Z,25.50
2019-03-17T17:42:10.234Z,22.70
2019-03-17T17:44:41.201Z,18.33
2019-03-17T17:47:12.107Z,29.97
2019-03-17T17:49:42.373Z,24.33
2019-03-17T17:52:14.189Z,26.77
2019-03-17T17:54:44.487Z,25.00
2019-03-17T17:57:18.233Z,18.60
2019-03-17T17:59:48.602Z,23.50
2019-03-17T18:02:19.063Z,24.10
2019-03-17T18:04:49.289Z,20.17
2019-03-17T18:07:19.771Z,21.27
2019-03-17T18:09:50.202Z,19.32
2019-03-17T18:12:21.515Z,18.00
2019-03-17T18:14:53.174Z,25.30
2019-03-17T18:17:23.269Z,24.50
2019-03-17T18:19:53.574Z,22.25
2019-03-17T18:22:23.689Z,22.05
2019-03-17T18:24:54.250Z,19.52
2019-03-17T18:27:26.332Z,18.23
2019-03-17T18:29:57.735Z,18.98
2019-03-17T18:32:28.371Z,19.00
2019-03-17T18:34:58.958Z,22.37
2019-03-17T18:37:29.174Z,11.78
2019-03-17T18:39:59.571Z,24.80
2019-03-17T18:42:33.338Z,21.52
2019-03-17T18:45:03.015Z,21.52
2019-03-17T18:47:33.158Z,26.30
2019-03-17T18:50:04.567Z,18.02
2019-03-17T18:52:35.409Z,18.92
2019-03-17T18:55:05.971Z,13.93
2019-03-17T18:57:37.587Z,18.35
2019-03-17T19:00:10.505Z,17.02
2019-03-17T19:02:40.576Z,16.15
2019-03-17T19:05:11.140Z,17.62
2019-03-17T19:07:41.417Z,20.25
2019-03-17T19:10:11.807Z,31.35
2019-03-17T19:12:45.935Z,28.20
2019-03-17T19:15:15.485Z,19.07
2019-03-17T19:17:46.299Z,21.02
2019-03-17T19:20:17.933Z,14.97
2019-03-17T19:22:48.636Z,19.90
2019-03-17T19:25:19.007Z,18.87
2019-03-17T19:27:51.529Z,13.98
2019-03-17T19:30:25.607Z,22.42
2019-03-17T19:32:56.362Z,23.40
2019-03-17T19:35:27.762Z,14.38
2019-03-17T19:37:58.250Z,24.87
2019-03-17T19:40:28.847Z,21.23
2019-03-17T19:42:59.890Z,15.78
2019-03-17T19:45:30.863Z,16.52
2019-03-17T19:48:01.057Z,21.02
2019-03-17T19:50:33.242Z,15.68
2019-03-17T19:53:03.733Z,16.05
2019-03-17T19:55:34.362Z,26.70
2019-03-17T19:58:04.860Z,18.27
2019-03-17T20:00:35.658Z,18.10
2019-03-17T20:03:07.173Z,20.75
2019-03-17T20:05:37.534Z,18.32
2019-03-17T20:08:08.167Z,20.10
2019-03-17T20:10:38.852Z,20.50
2019-03-17T20:13:11.818Z,19.52
2019-03-17T20:15:44.364Z,17.60
2019-03-17T20:18:14.593Z,18.40
2019-03-17T20:20:45.165Z,17.00
2019-03-17T20:23:25.623Z,20.40
2019-03-17T20:25:56.163Z,19.67
2019-03-17T20:28:26.847Z,19.80
2019-03-17T20:30:58.115Z,21.45
2019-03-17T20:33:29.838Z,19.65
2019-03-17T20:36:00.748Z,15.48
2019-03-17T20:38:36.350Z,20.27
2019-03-17T20:41:06.965Z,21.02
2019-03-17T20:43:38.554Z,18.32
2019-03-17T20:46:12.986Z,14.00
2019-03-17T20:48:43.812Z,23.20
2019-03-17T20:51:14.562Z,21.37
2019-03-17T20:53:46.274Z,15.40
2019-03-17T20:56:16.870Z,21.52
2019-03-17T20:58:47.526Z,20.45
2019-03-17T21:01:17.885Z,20.40
2019-03-17T21:03:48.311Z,22.02
2019-03-17T21:06:24.562Z,23.00
2019-03-17T21:08:56.497Z,15.32
2019-03-17T21:11:26.879Z,19.85
2019-03-17T21:14:03.356Z,14.47
2019-03-17T21:16:34.305Z,19.87
2019-03-17T21:19:04.773Z,17.48
2019-03-17T21:21:39.904Z,26.00
2019-03-17T21:24:10.013Z,20.45
2019-03-17T21:26:40.560Z,16.02
2019-03-17T21:29:11.115Z,13.13
2019-03-17T21:31:41.727Z,25.82
2019-03-17T21:34:12.340Z,24.18
2019-03-17T21:36:42.700Z,24.02
2019-03-17T21:39:13.708Z,33.55
2019-03-17T21:41:44.967Z,22.75
2019-03-17T21:44:18.251Z,16.97
2019-03-17T21:46:49.067Z,24.05
2019-03-17T21:49:19.679Z,20.88
2019-03-17T21:51:55.687Z,26.20
2019-03-17T21:54:26.388Z,23.20
2019-03-17T21:56:56.887Z,25.43
2019-03-17T21:59:30.206Z,19.40
2019-03-17T22:02:12.488Z,16.42
2019-03-17T22:04:35.566Z,22.20
2019-03-17T22:07:06.351Z,24.90
2019-03-17T22:09:37.422Z,20.68
2019-03-17T22:12:08.650Z,30.27
2019-03-17T22:14:39.172Z,21.60
2019-03-17T22:17:10.209Z,21.00
2019-03-17T22:19:40.696Z,13.95
2019-03-17T22:22:11.039Z,15.88
2019-03-17T22:24:42.733Z,16.30
2019-03-17T22:27:13.031Z,29.10
2019-03-17T22:29:43.383Z,18.40
2019-03-17T22:32:14.035Z,14.70
2019-03-17T22:34:44.227Z,13.93
2019-03-17T22:37:14.995Z,20.17
2019-03-17T22:39:45.484Z,14.80
2019-03-17T22:42:16.442Z,15.83
2019-03-17T22:44:46.856Z,24.65
2019-03-17T22:47:18.890Z,18.57
2019-03-17T22:49:51.128Z,17.95
2019-03-17T22:52:22.532Z,22.45
2019-03-17T22:54:54.224Z,15.58
2019-03-17T22:57:24.474Z,20.62
2019-03-17T22:59:55.279Z,11.40
2019-03-17T23:02:25.728Z,22.10
2019-03-17T23:04:56.098Z,14.98
2019-03-17T23:07:26.886Z,20.88
2019-03-17T23:09:57.702Z,18.45
2019-03-17T23:12:29.316Z,23.83
2019-03-17T23:14:59.866Z,20.80
2019-03-17T23:17:30.700Z,22.73
2019-03-17T23:20:01.087Z,21.80
2019-03-17T23:22:31.991Z,20.75
2019-03-17T23:25:02.514Z,29.37
2019-03-17T23:27:32.970Z,8.60
2019-03-17T23:30:03.427Z,15.70
2019-03-17T23:32:33.843Z,6.25
2019-03-17T23:35:04.357Z,7.47
2019-03-17T23:37:34.699Z,7.87
2019-03-17T23:40:06.147Z,7.90
2019-03-17T23:42:36.576Z,11.10
2019-03-17T23:45:07.571Z,9.65
2019-03-17T23:47:37.860Z,7.40
2019-03-17T23:50:08.319Z,8.78
2019-03-17T23:52:39.945Z,17.55
2019-03-17T23:55:11.602Z,12.07
2019-03-17T23:57:41.881Z,13.20
